sensor_id;sensor_type;location;lat;lon;timestamp;pressure;altitude;pressure_sealevel;temperature;humidity
10464;BME280;5279;42.048;24.638;2023-09-19T00:00:27;97877.00;;;15.49;100.00
10464;BME280;5279;42.048;24.638;2023-09-19T00:02:54;97882.97;;;15.43;100.00
10464;BME280;5279;42.048;24.638;2023-09-19T00:05:24;97880.78;;;15.39;100.00
10464;BME280;5279;42.048;24.638;2023-09-19T00:07:54;97874.81;;;15.28;100.00
10464;BME280;5279;42.048;24.638;2023-09-19T00:10:22;97880.47;;;15.33;100.00
10464;BME280;5279;42.048;24.638;2023-09-19T00:12:50;97872.97;;;15.37;100.00
10464;BME280;5279;42.048;24.638;2023-09-19T00:15:18;97873.28;;;15.42;100.00
10464;BME280;5279;42.048;24.638;2023-09-19T00:17:47;97868.13;;;15.49;100.00
10464;BME280;5279;42.048;24.638;2023-09-19T00:20:14;97866.44;;;15.40;100.00
10464;BME280;5279;42.048;24.638;2023-09-19T00:22:43;97870.44;;;15.36;100.00
10464;BME280;5279;42.048;24.638;2023-09-19T00:25:10;97862.44;;;15.27;100.00
10464;BME280;5279;42.048;24.638;2023-09-19T00:27:38;97874.13;;;15.26;100.00
10464;BME280;5279;42.048;24.638;2023-09-19T00:30:09;97868.78;;;15.18;100.00
10464;BME280;5279;42.048;24.638;2023-09-19T00:32:40;97866.94;;;15.11;100.00
10464;BME280;5279;42.048;24.638;2023-09-19T00:35:08;97874.78;;;15.12;100.00
10464;BME280;5279;42.048;24.638;2023-09-19T00:37:37;97864.28;;;14.95;100.00
10464;BME280;5279;42.048;24.638;2023-09-19T00:40:06;97865.78;;;15.05;100.00
10464;BME280;5279;42.048;24.638;2023-09-19T00:42:36;97862.78;;;15.00;100.00
10464;BME280;5279;42.048;24.638;2023-09-19T00:45:04;97857.78;;;14.89;100.00
10464;BME280;5279;42.048;24.638;2023-09-19T00:47:31;97862.78;;;14.92;100.00
10464;BME280;5279;42.048;24.638;2023-09-19T00:49:59;97858.75;;;14.96;100.00
10464;BME280;5279;42.048;24.638;2023-09-19T00:52:27;97854.41;;;14.87;100.00
10464;BME280;5279;42.048;24.638;2023-09-19T00:54:54;97857.41;;;14.76;100.00
10464;BME280;5279;42.048;24.638;2023-09-19T00:57:22;97857.75;;;14.65;100.00
10464;BME280;5279;42.048;24.638;2023-09-19T00:59:50;97865.50;;;14.42;100.00
10464;BME280;5279;42.048;24.638;2023-09-19T01:02:21;97856.84;;;14.48;100.00
10464;BME280;5279;42.048;24.638;2023-09-19T01:04:48;97859.38;;;14.66;100.00
10464;BME280;5279;42.048;24.638;2023-09-19T01:07:15;97859.44;;;14.74;100.00
10464;BME280;5279;42.048;24.638;2023-09-19T01:09:43;97849.41;;;14.76;100.00
10464;BME280;5279;42.048;24.638;2023-09-19T01:12:11;97852.91;;;14.76;100.00
10464;BME280;5279;42.048;24.638;2023-09-19T01:14:49;97842.41;;;14.75;100.00
10464;BME280;5279;42.048;24.638;2023-09-19T01:17:27;97849.41;;;14.84;100.00
10464;BME280;5279;42.048;24.638;2023-09-19T01:20:19;97843.09;;;14.93;100.00
10464;BME280;5279;42.048;24.638;2023-09-19T01:23:00;97844.59;;;14.96;100.00
10464;BME280;5279;42.048;24.638;2023-09-19T01:25:55;97845.09;;;14.91;100.00
10464;BME280;5279;42.048;24.638;2023-09-19T01:28:34;97842.59;;;14.82;100.00
10464;BME280;5279;42.048;24.638;2023-09-19T01:31:09;97850.59;;;14.82;100.00
10464;BME280;5279;42.048;24.638;2023-09-19T01:33:59;97846.06;;;14.66;100.00
10464;BME280;5279;42.048;24.638;2023-09-19T01:36:32;97855.56;;;14.60;100.00
10464;BME280;5279;42.048;24.638;2023-09-19T01:39:04;97850.41;;;14.59;100.00
10464;BME280;5279;42.048;24.638;2023-09-19T01:41:44;97851.06;;;14.69;100.00
10464;BME280;5279;42.048;24.638;2023-09-19T01:44:18;97856.41;;;14.69;100.00
10464;BME280;5279;42.048;24.638;2023-09-19T01:46:49;97854.75;;;14.68;100.00
10464;BME280;5279;42.048;24.638;2023-09-19T01:49:24;97841.56;;;14.66;100.00
10464;BME280;5279;42.048;24.638;2023-09-19T01:51:59;97845.22;;;14.65;100.00
10464;BME280;5279;42.048;24.638;2023-09-19T01:54:36;97848.91;;;14.72;100.00
10464;BME280;5279;42.048;24.638;2023-09-19T01:57:11;97835.72;;;14.63;100.00
10464;BME280;5279;42.048;24.638;2023-09-19T01:59:45;97838.06;;;14.58;100.00
10464;BME280;5279;42.048;24.638;2023-09-19T02:02:15;97853.91;;;14.67;100.00
10464;BME280;5279;42.048;24.638;2023-09-19T02:04:44;97850.06;;;14.62;100.00
10464;BME280;5279;42.048;24.638;2023-09-19T02:07:11;97849.53;;;14.50;100.00
10464;BME280;5279;42.048;24.638;2023-09-19T02:09:37;97854.97;;;14.33;100.00
10464;BME280;5279;42.048;24.638;2023-09-19T02:12:05;97856.16;;;14.38;100.00
10464;BME280;5279;42.048;24.638;2023-09-19T02:14:32;97853.94;;;14.26;100.00
10464;BME280;5279;42.048;24.638;2023-09-19T02:16:59;97843.88;;;14.11;100.00
10464;BME280;5279;42.048;24.638;2023-09-19T02:19:28;97836.06;;;14.18;100.00
10464;BME280;5279;42.048;24.638;2023-09-19T02:21:55;97834.59;;;14.23;100.00
10464;BME280;5279;42.048;24.638;2023-09-19T02:24:22;97833.41;;;14.26;100.00
10464;BME280;5279;42.048;24.638;2023-09-19T02:26:49;97837.00;;;14.35;100.00
10464;BME280;5279;42.048;24.638;2023-09-19T02:29:17;97835.63;;;14.31;100.00
10464;BME280;5279;42.048;24.638;2023-09-19T02:31:44;97831.69;;;14.35;100.00
10464;BME280;5279;42.048;24.638;2023-09-19T02:34:11;97842.25;;;14.27;100.00
10464;BME280;5279;42.048;24.638;2023-09-19T02:36:45;97837.63;;;14.29;100.00
10464;BME280;5279;42.048;24.638;2023-09-19T02:39:12;97840.94;;;14.31;100.00
10464;BME280;5279;42.048;24.638;2023-09-19T02:41:39;97841.50;;;14.34;100.00
10464;BME280;5279;42.048;24.638;2023-09-19T02:44:07;97841.78;;;14.31;100.00
10464;BME280;5279;42.048;24.638;2023-09-19T02:46:34;97843.28;;;14.26;100.00
10464;BME280;5279;42.048;24.638;2023-09-19T02:49:02;97836.94;;;14.27;100.00
10464;BME280;5279;42.048;24.638;2023-09-19T02:51:30;97838.97;;;14.33;100.00
10464;BME280;5279;42.048;24.638;2023-09-19T02:53:59;97848.59;;;14.26;100.00
10464;BME280;5279;42.048;24.638;2023-09-19T02:56:26;97837.63;;;14.29;100.00
10464;BME280;5279;42.048;24.638;2023-09-19T02:58:55;97841.22;;;14.19;100.00
10464;BME280;5279;42.048;24.638;2023-09-19T03:01:23;97833.59;;;14.24;100.00
10464;BME280;5279;42.048;24.638;2023-09-19T03:03:50;97839.50;;;14.36;100.00
10464;BME280;5279;42.048;24.638;2023-09-19T03:06:17;97835.34;;;14.42;100.00
10464;BME280;5279;42.048;24.638;2023-09-19T03:08:45;97839.81;;;14.41;100.00
10464;BME280;5279;42.048;24.638;2023-09-19T03:11:15;97839.03;;;14.41;100.00
10464;BME280;5279;42.048;24.638;2023-09-19T03:13:50;97837.66;;;14.37;100.00
10464;BME280;5279;42.048;24.638;2023-09-19T03:16:17;97838.09;;;14.32;100.00
10464;BME280;5279;42.048;24.638;2023-09-19T03:18:44;97839.53;;;14.10;100.00
10464;BME280;5279;42.048;24.638;2023-09-19T03:21:12;97833.84;;;13.97;100.00
10464;BME280;5279;42.048;24.638;2023-09-19T03:23:40;97827.03;;;14.03;100.00
10464;BME280;5279;42.048;24.638;2023-09-19T03:26:06;97828.84;;;14.02;100.00
10464;BME280;5279;42.048;24.638;2023-09-19T03:28:35;97832.16;;;13.96;100.00
10464;BME280;5279;42.048;24.638;2023-09-19T03:31:04;97838.75;;;13.84;100.00
10464;BME280;5279;42.048;24.638;2023-09-19T03:33:32;97836.69;;;13.70;100.00
10464;BME280;5279;42.048;24.638;2023-09-19T03:36:00;97826.72;;;13.72;100.00
10464;BME280;5279;42.048;24.638;2023-09-19T03:38:30;97823.41;;;13.78;100.00
10464;BME280;5279;42.048;24.638;2023-09-19T03:40:58;97829.06;;;13.75;100.00
10464;BME280;5279;42.048;24.638;2023-09-19T03:43:25;97826.88;;;13.71;100.00
10464;BME280;5279;42.048;24.638;2023-09-19T03:45:53;97828.84;;;13.68;100.00
10464;BME280;5279;42.048;24.638;2023-09-19T03:48:23;97823.72;;;13.75;100.00
10464;BME280;5279;42.048;24.638;2023-09-19T03:50:51;97827.97;;;13.60;100.00
10464;BME280;5279;42.048;24.638;2023-09-19T03:53:17;97835.38;;;13.74;100.00
10464;BME280;5279;42.048;24.638;2023-09-19T03:55:45;97825.22;;;13.78;100.00
10464;BME280;5279;42.048;24.638;2023-09-19T03:58:12;97818.41;;;13.75;100.00
10464;BME280;5279;42.048;24.638;2023-09-19T04:00:39;97831.06;;;13.73;100.00
10464;BME280;5279;42.048;24.638;2023-09-19T04:03:08;97823.59;;;13.77;100.00
10464;BME280;5279;42.048;24.638;2023-09-19T04:05:36;97820.72;;;13.70;100.00
10464;BME280;5279;42.048;24.638;2023-09-19T04:08:02;97829.69;;;13.69;100.00
10464;BME280;5279;42.048;24.638;2023-09-19T04:10:29;97839.03;;;13.73;100.00
10464;BME280;5279;42.048;24.638;2023-09-19T04:12:56;97840.97;;;13.63;100.00
10464;BME280;5279;42.048;24.638;2023-09-19T04:15:23;97844.31;;;13.65;100.00
10464;BME280;5279;42.048;24.638;2023-09-19T04:17:50;97845.47;;;13.62;100.00
10464;BME280;5279;42.048;24.638;2023-09-19T04:20:21;97844.00;;;13.68;100.00
10464;BME280;5279;42.048;24.638;2023-09-19T04:22:49;97849.00;;;13.71;100.00
10464;BME280;5279;42.048;24.638;2023-09-19T04:25:16;97843.03;;;13.77;100.00
10464;BME280;5279;42.048;24.638;2023-09-19T04:27:44;97838.03;;;13.74;100.00
10464;BME280;5279;42.048;24.638;2023-09-19T04:30:12;97837.03;;;13.75;100.00
10464;BME280;5279;42.048;24.638;2023-09-19T04:32:40;97833.94;;;13.88;100.00
10464;BME280;5279;42.048;24.638;2023-09-19T04:35:09;97839.47;;;13.94;100.00
10464;BME280;5279;42.048;24.638;2023-09-19T04:37:39;97843.53;;;14.06;100.00
10464;BME280;5279;42.048;24.638;2023-09-19T04:40:07;97838.25;;;14.22;100.00
10464;BME280;5279;42.048;24.638;2023-09-19T04:42:39;97840.47;;;14.35;100.00
10464;BME280;5279;42.048;24.638;2023-09-19T04:45:07;97840.53;;;14.43;100.00
10464;BME280;5279;42.048;24.638;2023-09-19T04:47:35;97835.38;;;14.58;100.00
10464;BME280;5279;42.048;24.638;2023-09-19T04:50:08;97829.41;;;14.72;100.00
10464;BME280;5279;42.048;24.638;2023-09-19T04:52:40;97826.09;;;14.86;100.00
10464;BME280;5279;42.048;24.638;2023-09-19T04:55:09;97829.59;;;14.95;100.00
10464;BME280;5279;42.048;24.638;2023-09-19T04:57:45;97830.25;;;15.05;100.00
10464;BME280;5279;42.048;24.638;2023-09-19T05:00:14;97826.59;;;15.22;100.00
10464;BME280;5279;42.048;24.638;2023-09-19T05:02:42;97823.72;;;15.40;100.00
10464;BME280;5279;42.048;24.638;2023-09-19T05:05:10;97830.72;;;15.57;100.00
10464;BME280;5279;42.048;24.638;2023-09-19T05:07:43;97818.34;;;15.72;100.00
10464;BME280;5279;42.048;24.638;2023-09-19T05:10:10;97824.06;;;16.08;100.00
10464;BME280;5279;42.048;24.638;2023-09-19T05:12:38;97827.09;;;16.35;100.00
10464;BME280;5279;42.048;24.638;2023-09-19T05:15:12;97828.66;;;16.61;100.00
10464;BME280;5279;42.048;24.638;2023-09-19T05:17:47;97823.56;;;16.74;97.84
10464;BME280;5279;42.048;24.638;2023-09-19T05:20:15;97834.56;;;17.02;97.86
10464;BME280;5279;42.048;24.638;2023-09-19T05:22:57;97823.81;;;17.24;97.17
10464;BME280;5279;42.048;24.638;2023-09-19T05:25:26;97822.75;;;17.48;93.39
10464;BME280;5279;42.048;24.638;2023-09-19T05:27:56;97825.41;;;17.71;95.84
10464;BME280;5279;42.048;24.638;2023-09-19T05:30:23;97819.78;;;17.95;93.08
10464;BME280;5279;42.048;24.638;2023-09-19T05:32:50;97826.44;;;18.14;91.04
10464;BME280;5279;42.048;24.638;2023-09-19T05:35:18;97824.28;;;18.38;87.56
10464;BME280;5279;42.048;24.638;2023-09-19T05:37:47;97831.09;;;18.55;85.25
10464;BME280;5279;42.048;24.638;2023-09-19T05:40:18;97830.81;;;18.86;82.31
10464;BME280;5279;42.048;24.638;2023-09-19T05:42:45;97835.50;;;18.99;80.16
10464;BME280;5279;42.048;24.638;2023-09-19T05:45:13;97842.88;;;19.12;79.15
10464;BME280;5279;42.048;24.638;2023-09-19T05:47:40;97843.94;;;19.17;80.60
10464;BME280;5279;42.048;24.638;2023-09-19T05:50:09;97840.97;;;19.33;79.99
10464;BME280;5279;42.048;24.638;2023-09-19T05:52:37;97841.22;;;19.38;81.92
10464;BME280;5279;42.048;24.638;2023-09-19T05:55:04;97833.16;;;19.59;81.50
10464;BME280;5279;42.048;24.638;2023-09-19T05:57:34;97841.00;;;19.89;78.42
10464;BME280;5279;42.048;24.638;2023-09-19T06:00:01;97834.66;;;19.96;77.58
10464;BME280;5279;42.048;24.638;2023-09-19T06:02:34;97825.88;;;20.22;75.96
10464;BME280;5279;42.048;24.638;2023-09-19T06:05:01;97825.97;;;20.35;69.69
10464;BME280;5279;42.048;24.638;2023-09-19T06:07:28;97826.47;;;20.58;69.92
10464;BME280;5279;42.048;24.638;2023-09-19T06:10:01;97822.81;;;20.73;69.35
10464;BME280;5279;42.048;24.638;2023-09-19T06:12:28;97815.38;;;21.01;65.30
10464;BME280;5279;42.048;24.638;2023-09-19T06:14:57;97819.16;;;21.13;65.71
10464;BME280;5279;42.048;24.638;2023-09-19T06:17:24;97813.59;;;21.21;67.72
10464;BME280;5279;42.048;24.638;2023-09-19T06:19:53;97815.03;;;21.30;65.47
10464;BME280;5279;42.048;24.638;2023-09-19T06:22:22;97800.09;;;21.60;64.58
10464;BME280;5279;42.048;24.638;2023-09-19T06:24:49;97802.56;;;21.55;63.84
10464;BME280;5279;42.048;24.638;2023-09-19T06:27:16;97810.03;;;21.73;65.52
10464;BME280;5279;42.048;24.638;2023-09-19T06:29:43;97801.31;;;21.64;68.61
10464;BME280;5279;42.048;24.638;2023-09-19T06:32:11;97807.13;;;21.74;69.35
10464;BME280;5279;42.048;24.638;2023-09-19T06:34:38;97807.53;;;21.85;67.51
10464;BME280;5279;42.048;24.638;2023-09-19T06:37:08;97813.75;;;21.85;65.81
10464;BME280;5279;42.048;24.638;2023-09-19T06:39:35;97810.44;;;22.03;65.13
10464;BME280;5279;42.048;24.638;2023-09-19T06:42:03;97810.16;;;22.17;65.71
10464;BME280;5279;42.048;24.638;2023-09-19T06:44:30;97810.09;;;22.37;62.56
10464;BME280;5279;42.048;24.638;2023-09-19T06:46:58;97807.31;;;22.50;62.31
10464;BME280;5279;42.048;24.638;2023-09-19T06:49:26;97806.47;;;22.56;60.67
10464;BME280;5279;42.048;24.638;2023-09-19T06:51:54;97811.66;;;22.64;60.46
10464;BME280;5279;42.048;24.638;2023-09-19T06:54:23;97808.75;;;22.59;59.93
10464;BME280;5279;42.048;24.638;2023-09-19T06:56:49;97797.84;;;22.34;60.97
10464;BME280;5279;42.048;24.638;2023-09-19T06:59:16;97809.31;;;22.23;62.42
10464;BME280;5279;42.048;24.638;2023-09-19T07:01:43;97809.91;;;22.32;61.73
10464;BME280;5279;42.048;24.638;2023-09-19T07:04:10;97802.88;;;22.31;64.66
10464;BME280;5279;42.048;24.638;2023-09-19T07:06:39;97805.34;;;22.26;61.90
10464;BME280;5279;42.048;24.638;2023-09-19T07:09:06;97795.41;;;22.20;60.47
10464;BME280;5279;42.048;24.638;2023-09-19T07:11:33;97802.88;;;22.31;62.59
10464;BME280;5279;42.048;24.638;2023-09-19T07:14:00;97806.97;;;22.40;62.20
10464;BME280;5279;42.048;24.638;2023-09-19T07:16:32;97808.41;;;22.49;61.47
10464;BME280;5279;42.048;24.638;2023-09-19T07:18:59;97807.47;;;22.68;59.42
10464;BME280;5279;42.048;24.638;2023-09-19T07:21:27;97796.59;;;22.81;62.02
10464;BME280;5279;42.048;24.638;2023-09-19T07:23:55;97790.41;;;23.06;60.05
10464;BME280;5279;42.048;24.638;2023-09-19T07:26:22;97797.72;;;23.30;58.98
10464;BME280;5279;42.048;24.638;2023-09-19T07:28:49;97801.72;;;23.52;58.83
10464;BME280;5279;42.048;24.638;2023-09-19T07:31:16;97803.59;;;23.76;57.34
10464;BME280;5279;42.048;24.638;2023-09-19T07:33:42;97802.97;;;23.92;56.57
10464;BME280;5279;42.048;24.638;2023-09-19T07:36:11;97795.00;;;24.22;54.30
10464;BME280;5279;42.048;24.638;2023-09-19T07:38:39;97792.56;;;24.32;56.64
10464;BME280;5279;42.048;24.638;2023-09-19T07:41:07;97795.19;;;24.39;53.64
10464;BME280;5279;42.048;24.638;2023-09-19T07:43:35;97796.38;;;24.61;52.77
10464;BME280;5279;42.048;24.638;2023-09-19T07:46:03;97791.06;;;24.84;52.13
10464;BME280;5279;42.048;24.638;2023-09-19T07:48:32;97789.75;;;24.57;52.94
10464;BME280;5279;42.048;24.638;2023-09-19T07:51:02;97795.63;;;24.54;53.05
10464;BME280;5279;42.048;24.638;2023-09-19T07:53:29;97794.81;;;24.54;52.70
10464;BME280;5279;42.048;24.638;2023-09-19T07:56:03;97778.97;;;24.21;52.54
10464;BME280;5279;42.048;24.638;2023-09-19T07:58:32;97788.00;;;24.15;53.19
10464;BME280;5279;42.048;24.638;2023-09-19T08:01:03;97776.84;;;24.23;53.56
10464;BME280;5279;42.048;24.638;2023-09-19T08:03:30;97774.88;;;24.48;53.88
10464;BME280;5279;42.048;24.638;2023-09-19T08:05:57;97766.84;;;24.89;52.47
10464;BME280;5279;42.048;24.638;2023-09-19T08:08:24;97768.28;;;25.15;51.49
10464;BME280;5279;42.048;24.638;2023-09-19T08:10:53;97758.44;;;25.44;52.78
10464;BME280;5279;42.048;24.638;2023-09-19T08:13:21;97755.03;;;25.72;49.39
10464;BME280;5279;42.048;24.638;2023-09-19T08:15:50;97757.16;;;25.93;48.22
10464;BME280;5279;42.048;24.638;2023-09-19T08:18:18;97761.50;;;25.94;47.92
10464;BME280;5279;42.048;24.638;2023-09-19T08:20:50;97757.06;;;26.39;46.01
10464;BME280;5279;42.048;24.638;2023-09-19T08:23:17;97753.34;;;26.57;46.81
10464;BME280;5279;42.048;24.638;2023-09-19T08:25:46;97751.81;;;26.89;44.54
10464;BME280;5279;42.048;24.638;2023-09-19T08:28:13;97746.91;;;27.20;44.78
10464;BME280;5279;42.048;24.638;2023-09-19T08:30:45;97743.44;;;27.41;43.28
10464;BME280;5279;42.048;24.638;2023-09-19T08:33:13;97738.06;;;27.12;43.98
10464;BME280;5279;42.048;24.638;2023-09-19T08:35:40;97734.78;;;27.10;45.43
10464;BME280;5279;42.048;24.638;2023-09-19T08:38:08;97740.28;;;27.15;46.92
10464;BME280;5279;42.048;24.638;2023-09-19T08:40:37;97730.41;;;27.43;44.71
10464;BME280;5279;42.048;24.638;2023-09-19T08:43:05;97738.31;;;27.61;43.95
10464;BME280;5279;42.048;24.638;2023-09-19T08:45:33;97728.75;;;27.75;43.92
10464;BME280;5279;42.048;24.638;2023-09-19T08:48:10;97722.69;;;27.73;44.70
10464;BME280;5279;42.048;24.638;2023-09-19T08:50:45;97725.28;;;28.01;43.99
10464;BME280;5279;42.048;24.638;2023-09-19T08:53:19;97727.44;;;28.21;43.56
10464;BME280;5279;42.048;24.638;2023-09-19T08:55:51;97728.94;;;28.29;42.84
10464;BME280;5279;42.048;24.638;2023-09-19T08:58:21;97726.53;;;28.10;43.01
10464;BME280;5279;42.048;24.638;2023-09-19T09:00:50;97730.34;;;27.93;43.78
10464;BME280;5279;42.048;24.638;2023-09-19T09:03:20;97725.84;;;28.03;42.90
10464;BME280;5279;42.048;24.638;2023-09-19T09:05:50;97729.19;;;27.89;43.54
10464;BME280;5279;42.048;24.638;2023-09-19T09:08:18;97731.22;;;27.98;42.85
10464;BME280;5279;42.048;24.638;2023-09-19T09:10:47;97730.16;;;27.99;44.07
10464;BME280;5279;42.048;24.638;2023-09-19T09:13:14;97726.34;;;28.00;42.78
10464;BME280;5279;42.048;24.638;2023-09-19T09:15:42;97724.06;;;28.79;40.99
10464;BME280;5279;42.048;24.638;2023-09-19T09:18:10;97723.69;;;28.97;39.79
10464;BME280;5279;42.048;24.638;2023-09-19T09:20:37;97716.34;;;30.08;38.31
10464;BME280;5279;42.048;24.638;2023-09-19T09:23:05;97717.19;;;31.16;35.97
10464;BME280;5279;42.048;24.638;2023-09-19T09:25:48;97708.31;;;32.15;33.85
10464;BME280;5279;42.048;24.638;2023-09-19T09:28:20;97713.09;;;33.36;32.29
10464;BME280;5279;42.048;24.638;2023-09-19T09:30:47;97702.09;;;34.41;30.89
10464;BME280;5279;42.048;24.638;2023-09-19T09:33:14;97703.63;;;33.81;30.81
10464;BME280;5279;42.048;24.638;2023-09-19T09:35:49;97704.13;;;32.87;31.91
10464;BME280;5279;42.048;24.638;2023-09-19T09:38:19;97696.91;;;31.48;33.63
10464;BME280;5279;42.048;24.638;2023-09-19T09:40:47;97687.31;;;30.69;34.89
10464;BME280;5279;42.048;24.638;2023-09-19T09:43:28;97693.00;;;30.43;36.08
10464;BME280;5279;42.048;24.638;2023-09-19T09:46:16;97683.41;;;32.07;34.15
10464;BME280;5279;42.048;24.638;2023-09-19T09:49:01;97679.53;;;33.73;31.09
10464;BME280;5279;42.048;24.638;2023-09-19T09:51:42;97667.56;;;35.10;29.68
10464;BME280;5279;42.048;24.638;2023-09-19T09:54:15;97684.09;;;36.29;27.19
10464;BME280;5279;42.048;24.638;2023-09-19T09:56:55;97675.06;;;35.69;26.91
10464;BME280;5279;42.048;24.638;2023-09-19T09:59:48;97674.97;;;36.42;26.85
10464;BME280;5279;42.048;24.638;2023-09-19T10:02:21;97678.28;;;37.16;25.88
10464;BME280;5279;42.048;24.638;2023-09-19T10:04:55;97668.44;;;38.16;24.67
10464;BME280;5279;42.048;24.638;2023-09-19T10:07:40;97663.06;;;38.85;24.41
10464;BME280;5279;42.048;24.638;2023-09-19T10:10:14;97662.53;;;38.74;23.74
10464;BME280;5279;42.048;24.638;2023-09-19T10:12:48;97663.72;;;38.99;25.12
10464;BME280;5279;42.048;24.638;2023-09-19T10:15:16;97658.31;;;39.37;24.15
10464;BME280;5279;42.048;24.638;2023-09-19T10:17:46;97661.63;;;39.76;23.30
10464;BME280;5279;42.048;24.638;2023-09-19T10:20:15;97648.00;;;39.37;23.48
10464;BME280;5279;42.048;24.638;2023-09-19T10:22:49;97661.25;;;38.89;23.34
10464;BME280;5279;42.048;24.638;2023-09-19T10:25:26;97651.00;;;38.80;23.48
10464;BME280;5279;42.048;24.638;2023-09-19T10:27:54;97647.69;;;38.44;24.44
10464;BME280;5279;42.048;24.638;2023-09-19T10:30:23;97642.03;;;37.70;24.55
10464;BME280;5279;42.048;24.638;2023-09-19T10:32:57;97646.56;;;38.45;23.93
10464;BME280;5279;42.048;24.638;2023-09-19T10:35:26;97640.84;;;38.67;23.56
10464;BME280;5279;42.048;24.638;2023-09-19T10:37:57;97642.03;;;38.92;23.68
10464;BME280;5279;42.048;24.638;2023-09-19T10:40:28;97632.03;;;39.34;23.18
10464;BME280;5279;42.048;24.638;2023-09-19T10:43:01;97626.56;;;39.72;22.49
10464;BME280;5279;42.048;24.638;2023-09-19T10:45:30;97625.34;;;39.35;23.38
10464;BME280;5279;42.048;24.638;2023-09-19T10:47:58;97620.81;;;39.30;23.32
10464;BME280;5279;42.048;24.638;2023-09-19T10:50:27;97625.78;;;39.54;22.87
10464;BME280;5279;42.048;24.638;2023-09-19T10:52:59;97620.22;;;40.09;22.70
10464;BME280;5279;42.048;24.638;2023-09-19T10:55:32;97605.41;;;39.97;22.31
10464;BME280;5279;42.048;24.638;2023-09-19T10:58:01;97610.34;;;40.41;22.47
10464;BME280;5279;42.048;24.638;2023-09-19T11:00:53;97603.22;;;41.47;21.79
10464;BME280;5279;42.048;24.638;2023-09-19T11:03:21;97604.00;;;41.03;21.46
10464;BME280;5279;42.048;24.638;2023-09-19T11:06:16;97597.25;;;41.81;20.75
10464;BME280;5279;42.048;24.638;2023-09-19T11:09:00;97593.06;;;41.75;21.30
10464;BME280;5279;42.048;24.638;2023-09-19T11:11:50;97585.41;;;41.72;19.92
10464;BME280;5279;42.048;24.638;2023-09-19T11:14:40;97586.22;;;41.16;21.25
10464;BME280;5279;42.048;24.638;2023-09-19T11:17:30;97587.50;;;41.75;20.33
10464;BME280;5279;42.048;24.638;2023-09-19T11:20:27;97585.16;;;41.53;20.72
10464;BME280;5279;42.048;24.638;2023-09-19T11:23:22;97571.22;;;40.75;21.84
10464;BME280;5279;42.048;24.638;2023-09-19T11:25:50;97576.53;;;41.34;21.58
10464;BME280;5279;42.048;24.638;2023-09-19T11:28:30;97574.38;;;41.07;21.44
10464;BME280;5279;42.048;24.638;2023-09-19T11:30:57;97566.34;;;40.72;21.52
10464;BME280;5279;42.048;24.638;2023-09-19T11:33:25;97565.22;;;41.06;21.83
10464;BME280;5279;42.048;24.638;2023-09-19T11:36:03;97563.03;;;41.12;20.80
10464;BME280;5279;42.048;24.638;2023-09-19T11:38:58;97553.72;;;40.13;22.15
10464;BME280;5279;42.048;24.638;2023-09-19T11:41:37;97548.34;;;40.28;22.78
10464;BME280;5279;42.048;24.638;2023-09-19T11:44:34;97545.28;;;39.25;22.68
10464;BME280;5279;42.048;24.638;2023-09-19T11:47:31;97536.28;;;39.74;22.71
10464;BME280;5279;42.048;24.638;2023-09-19T11:50:00;97536.66;;;40.64;21.56
10464;BME280;5279;42.048;24.638;2023-09-19T11:52:28;97529.97;;;41.10;21.02
10464;BME280;5279;42.048;24.638;2023-09-19T11:55:00;97530.78;;;41.56;20.49
10464;BME280;5279;42.048;24.638;2023-09-19T11:57:29;97530.22;;;41.05;21.49
10464;BME280;5279;42.048;24.638;2023-09-19T11:59:58;97524.41;;;41.43;20.94
10464;BME280;5279;42.048;24.638;2023-09-19T12:02:37;97516.75;;;41.52;20.54
10464;BME280;5279;42.048;24.638;2023-09-19T12:05:37;97514.88;;;41.44;20.29
10464;BME280;5279;42.048;24.638;2023-09-19T12:08:04;97524.19;;;40.70;21.21
10464;BME280;5279;42.048;24.638;2023-09-19T12:10:33;97508.41;;;39.33;22.38
10464;BME280;5279;42.048;24.638;2023-09-19T12:13:00;97500.06;;;38.09;23.38
10464;BME280;5279;42.048;24.638;2023-09-19T12:15:29;97500.38;;;36.81;25.10
10464;BME280;5279;42.048;24.638;2023-09-19T12:18:00;97503.59;;;35.81;26.06
10464;BME280;5279;42.048;24.638;2023-09-19T12:20:42;97500.84;;;35.53;26.91
10464;BME280;5279;42.048;24.638;2023-09-19T12:23:13;97496.00;;;35.86;26.87
10464;BME280;5279;42.048;24.638;2023-09-19T12:25:43;97501.88;;;35.57;26.89
10464;BME280;5279;42.048;24.638;2023-09-19T12:28:12;97507.06;;;35.73;26.51
10464;BME280;5279;42.048;24.638;2023-09-19T12:30:42;97508.84;;;36.40;26.70
10464;BME280;5279;42.048;24.638;2023-09-19T12:33:15;97503.09;;;36.50;26.05
10464;BME280;5279;42.048;24.638;2023-09-19T12:35:44;97503.31;;;35.69;26.60
10464;BME280;5279;42.048;24.638;2023-09-19T12:38:22;97494.41;;;35.17;27.26
10464;BME280;5279;42.048;24.638;2023-09-19T12:40:50;97495.91;;;34.64;28.22
10464;BME280;5279;42.048;24.638;2023-09-19T12:43:18;97487.28;;;34.51;28.59
10464;BME280;5279;42.048;24.638;2023-09-19T12:45:47;97489.28;;;34.14;28.80
10464;BME280;5279;42.048;24.638;2023-09-19T12:48:24;97489.13;;;34.88;28.15
10464;BME280;5279;42.048;24.638;2023-09-19T12:51:04;97489.91;;;36.47;25.83
10464;BME280;5279;42.048;24.638;2023-09-19T12:53:33;97484.41;;;37.88;24.83
10464;BME280;5279;42.048;24.638;2023-09-19T12:56:05;97487.69;;;38.07;23.68
10464;BME280;5279;42.048;24.638;2023-09-19T12:58:34;97470.84;;;37.21;23.98
10464;BME280;5279;42.048;24.638;2023-09-19T13:01:14;97479.56;;;36.75;25.32
10464;BME280;5279;42.048;24.638;2023-09-19T13:03:40;97479.09;;;36.82;25.37
10464;BME280;5279;42.048;24.638;2023-09-19T13:06:07;97481.19;;;38.11;23.81
10464;BME280;5279;42.048;24.638;2023-09-19T13:08:39;97487.97;;;39.75;22.65
10464;BME280;5279;42.048;24.638;2023-09-19T13:11:09;97478.19;;;40.94;21.04
10464;BME280;5279;42.048;24.638;2023-09-19T13:13:39;97471.69;;;42.11;19.69